sensor_id;sensor_type;location;lat;lon;timestamp;P1;durP1;ratioP1;P2;durP2;ratioP2
18879;SDS011;9572;52.378;13.404;2023-07-31T00:01:07;4.68;;;1.83;;
18879;SDS011;9572;52.378;13.404;2023-07-31T00:03:34;4.13;;;1.50;;
18879;SDS011;9572;52.378;13.404;2023-07-31T00:06:03;3.78;;;1.40;;
18879;SDS011;9572;52.378;13.404;2023-07-31T00:08:30;2.17;;;1.33;;
18879;SDS011;9572;52.378;13.404;2023-07-31T00:10:58;3.45;;;1.42;;
18879;SDS011;9572;52.378;13.404;2023-07-31T00:13:28;4.32;;;1.70;;
18879;SDS011;9572;52.378;13.404;2023-07-31T00:15:55;2.78;;;1.65;;
18879;SDS011;9572;52.378;13.404;2023-07-31T00:18:23;4.05;;;1.58;;
18879;SDS011;9572;52.378;13.404;2023-07-31T00:20:50;3.45;;;1.70;;
18879;SDS011;9572;52.378;13.404;2023-07-31T00:23:19;3.35;;;1.52;;
18879;SDS011;9572;52.378;13.404;2023-07-31T00:25:48;3.85;;;1.80;;
18879;SDS011;9572;52.378;13.404;2023-07-31T00:28:15;1.73;;;1.17;;
18879;SDS011;9572;52.378;13.404;2023-07-31T00:30:42;3.05;;;1.65;;
18879;SDS011;9572;52.378;13.404;2023-07-31T00:33:09;3.53;;;1.60;;
18879;SDS011;9572;52.378;13.404;2023-07-31T00:35:37;3.38;;;1.70;;
18879;SDS011;9572;52.378;13.404;2023-07-31T00:38:04;2.08;;;1.30;;
18879;SDS011;9572;52.378;13.404;2023-07-31T00:40:35;4.57;;;1.67;;
18879;SDS011;9572;52.378;13.404;2023-07-31T00:43:03;2.75;;;1.50;;
18879;SDS011;9572;52.378;13.404;2023-07-31T00:45:30;4.57;;;1.38;;
18879;SDS011;9572;52.378;13.404;2023-07-31T00:48:00;5.45;;;1.42;;
18879;SDS011;9572;52.378;13.404;2023-07-31T00:50:28;4.22;;;1.38;;
18879;SDS011;9572;52.378;13.404;2023-07-31T00:52:56;1.58;;;1.48;;
18879;SDS011;9572;52.378;13.404;2023-07-31T00:55:22;2.42;;;1.58;;
18879;SDS011;9572;52.378;13.404;2023-07-31T00:57:52;3.60;;;1.92;;
18879;SDS011;9572;52.378;13.404;2023-07-31T01:00:20;4.75;;;1.83;;
18879;SDS011;9572;52.378;13.404;2023-07-31T01:02:48;4.32;;;1.70;;
18879;SDS011;9572;52.378;13.404;2023-07-31T01:05:21;3.25;;;2.13;;
18879;SDS011;9572;52.378;13.404;2023-07-31T01:07:56;5.95;;;1.88;;
18879;SDS011;9572;52.378;13.404;2023-07-31T01:10:32;10.27;;;2.15;;
18879;SDS011;9572;52.378;13.404;2023-07-31T01:13:05;5.55;;;1.75;;
18879;SDS011;9572;52.378;13.404;2023-07-31T01:15:33;4.03;;;1.80;;
18879;SDS011;9572;52.378;13.404;2023-07-31T01:18:00;4.25;;;2.38;;
18879;SDS011;9572;52.378;13.404;2023-07-31T01:20:28;6.25;;;1.85;;
18879;SDS011;9572;52.378;13.404;2023-07-31T01:23:09;4.55;;;1.73;;
18879;SDS011;9572;52.378;13.404;2023-07-31T01:26:02;4.20;;;1.95;;
18879;SDS011;9572;52.378;13.404;2023-07-31T01:28:39;4.38;;;2.00;;
18879;SDS011;9572;52.378;13.404;2023-07-31T01:31:12;4.93;;;2.25;;
18879;SDS011;9572;52.378;13.404;2023-07-31T01:33:41;3.72;;;1.98;;
18879;SDS011;9572;52.378;13.404;2023-07-31T01:36:09;4.75;;;2.55;;
18879;SDS011;9572;52.378;13.404;2023-07-31T01:38:37;4.13;;;2.08;;
18879;SDS011;9572;52.378;13.404;2023-07-31T01:41:06;5.65;;;1.92;;
18879;SDS011;9572;52.378;13.404;2023-07-31T01:43:34;4.85;;;2.00;;
18879;SDS011;9572;52.378;13.404;2023-07-31T01:46:01;3.97;;;2.30;;
18879;SDS011;9572;52.378;13.404;2023-07-31T01:48:29;4.88;;;2.53;;
18879;SDS011;9572;52.378;13.404;2023-07-31T01:51:00;5.95;;;2.40;;
18879;SDS011;9572;52.378;13.404;2023-07-31T01:53:28;4.93;;;2.20;;
18879;SDS011;9572;52.378;13.404;2023-07-31T01:55:57;5.97;;;2.40;;
18879;SDS011;9572;52.378;13.404;2023-07-31T01:58:27;3.72;;;2.40;;
18879;SDS011;9572;52.378;13.404;2023-07-31T02:00:54;3.92;;;2.22;;
18879;SDS011;9572;52.378;13.404;2023-07-31T02:03:21;4.57;;;2.30;;
18879;SDS011;9572;52.378;13.404;2023-07-31T02:05:49;2.40;;;2.20;;
18879;SDS011;9572;52.378;13.404;2023-07-31T02:08:17;7.22;;;2.28;;
18879;SDS011;9572;52.378;13.404;2023-07-31T02:10:44;4.13;;;2.53;;
18879;SDS011;9572;52.378;13.404;2023-07-31T02:13:10;4.60;;;2.47;;
18879;SDS011;9572;52.378;13.404;2023-07-31T02:15:39;3.42;;;2.35;;
18879;SDS011;9572;52.378;13.404;2023-07-31T02:18:06;3.13;;;2.78;;
18879;SDS011;9572;52.378;13.404;2023-07-31T02:20:33;4.35;;;2.63;;
18879;SDS011;9572;52.378;13.404;2023-07-31T02:23:01;5.03;;;2.47;;
18879;SDS011;9572;52.378;13.404;2023-07-31T02:25:28;4.60;;;2.50;;
18879;SDS011;9572;52.378;13.404;2023-07-31T02:27:55;5.90;;;2.80;;
18879;SDS011;9572;52.378;13.404;2023-07-31T02:30:22;10.27;;;3.42;;
18879;SDS011;9572;52.378;13.404;2023-07-31T02:32:51;4.18;;;2.67;;
18879;SDS011;9572;52.378;13.404;2023-07-31T02:35:18;3.97;;;2.33;;
18879;SDS011;9572;52.378;13.404;2023-07-31T02:37:45;4.30;;;2.63;;
18879;SDS011;9572;52.378;13.404;2023-07-31T02:40:12;4.00;;;2.80;;
18879;SDS011;9572;52.378;13.404;2023-07-31T02:42:39;10.73;;;2.78;;
18879;SDS011;9572;52.378;13.404;2023-07-31T02:45:06;5.72;;;2.50;;
18879;SDS011;9572;52.378;13.404;2023-07-31T02:47:34;6.63;;;3.25;;
18879;SDS011;9572;52.378;13.404;2023-07-31T02:50:03;8.27;;;2.58;;
18879;SDS011;9572;52.378;13.404;2023-07-31T02:52:30;2.80;;;2.53;;
18879;SDS011;9572;52.378;13.404;2023-07-31T02:54:57;4.22;;;3.03;;
18879;SDS011;9572;52.378;13.404;2023-07-31T02:57:24;7.13;;;3.03;;
18879;SDS011;9572;52.378;13.404;2023-07-31T02:59:51;9.30;;;3.47;;
18879;SDS011;9572;52.378;13.404;2023-07-31T03:02:18;5.88;;;2.95;;
18879;SDS011;9572;52.378;13.404;2023-07-31T03:04:45;4.30;;;2.63;;
18879;SDS011;9572;52.378;13.404;2023-07-31T03:07:13;6.78;;;3.15;;
18879;SDS011;9572;52.378;13.404;2023-07-31T03:09:40;6.05;;;2.70;;
18879;SDS011;9572;52.378;13.404;2023-07-31T03:12:07;4.55;;;3.10;;
18879;SDS011;9572;52.378;13.404;2023-07-31T03:14:34;7.55;;;3.30;;
18879;SDS011;9572;52.378;13.404;2023-07-31T03:17:01;6.82;;;3.17;;
18879;SDS011;9572;52.378;13.404;2023-07-31T03:19:30;7.93;;;3.40;;
18879;SDS011;9572;52.378;13.404;2023-07-31T03:21:58;5.03;;;2.90;;
18879;SDS011;9572;52.378;13.404;2023-07-31T03:24:26;5.22;;;3.60;;
18879;SDS011;9572;52.378;13.404;2023-07-31T03:26:54;7.60;;;2.90;;
18879;SDS011;9572;52.378;13.404;2023-07-31T03:29:21;4.55;;;2.80;;
18879;SDS011;9572;52.378;13.404;2023-07-31T03:31:48;4.78;;;2.72;;
18879;SDS011;9572;52.378;13.404;2023-07-31T03:34:15;7.28;;;3.08;;
18879;SDS011;9572;52.378;13.404;2023-07-31T03:36:43;3.45;;;2.70;;
18879;SDS011;9572;52.378;13.404;2023-07-31T03:39:10;5.13;;;2.85;;
18879;SDS011;9572;52.378;13.404;2023-07-31T03:41:38;5.40;;;2.88;;
18879;SDS011;9572;52.378;13.404;2023-07-31T03:44:05;3.47;;;2.65;;
18879;SDS011;9572;52.378;13.404;2023-07-31T03:46:32;6.22;;;2.75;;
18879;SDS011;9572;52.378;13.404;2023-07-31T03:49:01;4.82;;;3.13;;
18879;SDS011;9572;52.378;13.404;2023-07-31T03:51:28;3.55;;;2.78;;
18879;SDS011;9572;52.378;13.404;2023-07-31T03:53:56;3.97;;;3.08;;
18879;SDS011;9572;52.378;13.404;2023-07-31T03:56:23;4.63;;;2.80;;
18879;SDS011;9572;52.378;13.404;2023-07-31T03:58:51;4.72;;;2.63;;
18879;SDS011;9572;52.378;13.404;2023-07-31T04:01:19;4.72;;;2.83;;
18879;SDS011;9572;52.378;13.404;2023-07-31T04:03:46;4.50;;;2.83;;
18879;SDS011;9572;52.378;13.404;2023-07-31T04:06:13;4.90;;;3.00;;
18879;SDS011;9572;52.378;13.404;2023-07-31T04:08:43;11.23;;;2.85;;
18879;SDS011;9572;52.378;13.404;2023-07-31T04:11:09;5.25;;;3.15;;
18879;SDS011;9572;52.378;13.404;2023-07-31T04:13:36;5.13;;;2.95;;
18879;SDS011;9572;52.378;13.404;2023-07-31T04:16:05;8.80;;;3.03;;
18879;SDS011;9572;52.378;13.404;2023-07-31T04:18:32;5.43;;;3.20;;
18879;SDS011;9572;52.378;13.404;2023-07-31T04:20:59;5.07;;;2.80;;
18879;SDS011;9572;52.378;13.404;2023-07-31T04:23:26;5.70;;;3.08;;
18879;SDS011;9572;52.378;13.404;2023-07-31T04:25:53;4.22;;;3.00;;
18879;SDS011;9572;52.378;13.404;2023-07-31T04:28:20;4.90;;;2.42;;
18879;SDS011;9572;52.378;13.404;2023-07-31T04:30:47;4.05;;;2.67;;
18879;SDS011;9572;52.378;13.404;2023-07-31T04:33:15;4.93;;;2.67;;
18879;SDS011;9572;52.378;13.404;2023-07-31T04:35:48;3.72;;;2.78;;
18879;SDS011;9572;52.378;13.404;2023-07-31T04:38:17;4.60;;;2.65;;
18879;SDS011;9572;52.378;13.404;2023-07-31T04:40:44;5.00;;;2.42;;
18879;SDS011;9572;52.378;13.404;2023-07-31T04:43:11;4.80;;;3.35;;
18879;SDS011;9572;52.378;13.404;2023-07-31T04:45:38;6.43;;;3.25;;
18879;SDS011;9572;52.378;13.404;2023-07-31T04:48:05;6.03;;;3.00;;
18879;SDS011;9572;52.378;13.404;2023-07-31T04:50:33;4.90;;;2.88;;
18879;SDS011;9572;52.378;13.404;2023-07-31T04:53:00;6.50;;;2.60;;
18879;SDS011;9572;52.378;13.404;2023-07-31T04:55:27;6.72;;;2.47;;
18879;SDS011;9572;52.378;13.404;2023-07-31T04:57:54;4.25;;;2.42;;
18879;SDS011;9572;52.378;13.404;2023-07-31T05:00:21;6.90;;;2.47;;
18879;SDS011;9572;52.378;13.404;2023-07-31T05:02:48;8.27;;;2.58;;
18879;SDS011;9572;52.378;13.404;2023-07-31T05:05:15;7.85;;;2.42;;
18879;SDS011;9572;52.378;13.404;2023-07-31T05:07:43;6.95;;;2.45;;
18879;SDS011;9572;52.378;13.404;2023-07-31T05:10:10;4.82;;;2.30;;
18879;SDS011;9572;52.378;13.404;2023-07-31T05:12:37;6.63;;;2.15;;
18879;SDS011;9572;52.378;13.404;2023-07-31T05:15:04;5.22;;;2.38;;
18879;SDS011;9572;52.378;13.404;2023-07-31T05:17:32;5.05;;;2.50;;
18879;SDS011;9572;52.378;13.404;2023-07-31T05:19:59;5.65;;;3.15;;
18879;SDS011;9572;52.378;13.404;2023-07-31T05:22:26;8.57;;;2.70;;
18879;SDS011;9572;52.378;13.404;2023-07-31T05:24:54;6.22;;;2.50;;
18879;SDS011;9572;52.378;13.404;2023-07-31T05:27:21;7.57;;;2.47;;
18879;SDS011;9572;52.378;13.404;2023-07-31T05:29:48;5.25;;;2.42;;
18879;SDS011;9572;52.378;13.404;2023-07-31T05:32:15;6.43;;;2.83;;
18879;SDS011;9572;52.378;13.404;2023-07-31T05:34:42;8.82;;;2.63;;
18879;SDS011;9572;52.378;13.404;2023-07-31T05:37:09;5.07;;;2.45;;
18879;SDS011;9572;52.378;13.404;2023-07-31T05:39:36;7.13;;;2.15;;
18879;SDS011;9572;52.378;13.404;2023-07-31T05:42:05;5.68;;;2.30;;
18879;SDS011;9572;52.378;13.404;2023-07-31T05:44:32;6.47;;;2.35;;
18879;SDS011;9572;52.378;13.404;2023-07-31T05:46:59;6.38;;;2.58;;
18879;SDS011;9572;52.378;13.404;2023-07-31T05:49:26;4.32;;;2.25;;
18879;SDS011;9572;52.378;13.404;2023-07-31T05:51:53;5.45;;;2.42;;
18879;SDS011;9572;52.378;13.404;2023-07-31T05:54:20;4.72;;;2.13;;
18879;SDS011;9572;52.378;13.404;2023-07-31T05:56:47;8.15;;;2.63;;
18879;SDS011;9572;52.378;13.404;2023-07-31T05:59:15;6.82;;;2.33;;
18879;SDS011;9572;52.378;13.404;2023-07-31T06:01:42;7.43;;;2.70;;
18879;SDS011;9572;52.378;13.404;2023-07-31T06:04:09;4.68;;;2.45;;
18879;SDS011;9572;52.378;13.404;2023-07-31T06:06:36;7.28;;;2.50;;
18879;SDS011;9572;52.378;13.404;2023-07-31T06:09:03;6.53;;;1.95;;
18879;SDS011;9572;52.378;13.404;2023-07-31T06:11:30;6.75;;;2.55;;
18879;SDS011;9572;52.378;13.404;2023-07-31T06:13:57;5.18;;;2.25;;
18879;SDS011;9572;52.378;13.404;2023-07-31T06:16:25;7.15;;;2.58;;
18879;SDS011;9572;52.378;13.404;2023-07-31T06:18:52;4.20;;;2.05;;
18879;SDS011;9572;52.378;13.404;2023-07-31T06:21:19;4.57;;;2.22;;
18879;SDS011;9572;52.378;13.404;2023-07-31T06:23:46;5.72;;;2.17;;
18879;SDS011;9572;52.378;13.404;2023-07-31T06:26:13;8.65;;;2.65;;
18879;SDS011;9572;52.378;13.404;2023-07-31T06:28:40;9.07;;;2.58;;
18879;SDS011;9572;52.378;13.404;2023-07-31T06:31:07;5.40;;;2.25;;
18879;SDS011;9572;52.378;13.404;2023-07-31T06:33:36;9.23;;;2.20;;
18879;SDS011;9572;52.378;13.404;2023-07-31T06:36:03;4.20;;;2.30;;
18879;SDS011;9572;52.378;13.404;2023-07-31T06:38:30;2.97;;;2.25;;
18879;SDS011;9572;52.378;13.404;2023-07-31T06:40:57;6.63;;;2.53;;
18879;SDS011;9572;52.378;13.404;2023-07-31T06:43:24;5.05;;;2.30;;
18879;SDS011;9572;52.378;13.404;2023-07-31T06:45:51;7.97;;;2.38;;
18879;SDS011;9572;52.378;13.404;2023-07-31T06:48:18;5.20;;;2.67;;
18879;SDS011;9572;52.378;13.404;2023-07-31T06:50:46;4.53;;;2.20;;
18879;SDS011;9572;52.378;13.404;2023-07-31T06:53:13;5.60;;;2.65;;
18879;SDS011;9572;52.378;13.404;2023-07-31T06:55:40;4.60;;;2.05;;
18879;SDS011;9572;52.378;13.404;2023-07-31T06:58:07;3.65;;;2.08;;
18879;SDS011;9572;52.378;13.404;2023-07-31T07:00:34;4.28;;;2.55;;
18879;SDS011;9572;52.378;13.404;2023-07-31T07:03:01;4.10;;;2.30;;
18879;SDS011;9572;52.378;13.404;2023-07-31T07:05:28;5.60;;;2.67;;
18879;SDS011;9572;52.378;13.404;2023-07-31T07:07:56;5.28;;;2.38;;
18879;SDS011;9572;52.378;13.404;2023-07-31T07:10:23;8.27;;;2.30;;
18879;SDS011;9572;52.378;13.404;2023-07-31T07:12:50;4.05;;;2.30;;
18879;SDS011;9572;52.378;13.404;2023-07-31T07:15:17;5.07;;;2.85;;
18879;SDS011;9572;52.378;13.404;2023-07-31T07:17:44;5.28;;;2.75;;
18879;SDS011;9572;52.378;13.404;2023-07-31T07:20:12;5.18;;;2.45;;
18879;SDS011;9572;52.378;13.404;2023-07-31T07:22:39;8.93;;;2.67;;
18879;SDS011;9572;52.378;13.404;2023-07-31T07:25:09;9.20;;;3.28;;
18879;SDS011;9572;52.378;13.404;2023-07-31T07:27:36;5.40;;;2.75;;
18879;SDS011;9572;52.378;13.404;2023-07-31T07:30:03;5.32;;;2.33;;
18879;SDS011;9572;52.378;13.404;2023-07-31T07:32:31;4.35;;;2.30;;
18879;SDS011;9572;52.378;13.404;2023-07-31T07:34:58;4.80;;;2.65;;
18879;SDS011;9572;52.378;13.404;2023-07-31T07:37:25;4.38;;;2.25;;
18879;SDS011;9572;52.378;13.404;2023-07-31T07:39:52;7.90;;;2.53;;
18879;SDS011;9572;52.378;13.404;2023-07-31T07:42:20;5.50;;;2.70;;
18879;SDS011;9572;52.378;13.404;2023-07-31T07:44:47;3.88;;;2.63;;
18879;SDS011;9572;52.378;13.404;2023-07-31T07:47:14;5.53;;;2.40;;
18879;SDS011;9572;52.378;13.404;2023-07-31T07:49:41;5.93;;;2.55;;
18879;SDS011;9572;52.378;13.404;2023-07-31T07:52:08;5.60;;;2.35;;
18879;SDS011;9572;52.378;13.404;2023-07-31T07:54:35;2.83;;;2.10;;
18879;SDS011;9572;52.378;13.404;2023-07-31T07:57:02;5.10;;;2.85;;
18879;SDS011;9572;52.378;13.404;2023-07-31T07:59:31;4.97;;;2.35;;
18879;SDS011;9572;52.378;13.404;2023-07-31T08:01:58;4.18;;;2.45;;
18879;SDS011;9572;52.378;13.404;2023-07-31T08:04:25;6.25;;;2.60;;
18879;SDS011;9572;52.378;13.404;2023-07-31T08:06:52;4.80;;;2.60;;
18879;SDS011;9572;52.378;13.404;2023-07-31T08:09:19;5.18;;;2.58;;
18879;SDS011;9572;52.378;13.404;2023-07-31T08:11:46;5.85;;;2.67;;
18879;SDS011;9572;52.378;13.404;2023-07-31T08:14:13;6.75;;;2.83;;
18879;SDS011;9572;52.378;13.404;2023-07-31T08:16:42;4.28;;;2.58;;
18879;SDS011;9572;52.378;13.404;2023-07-31T08:19:09;3.78;;;2.42;;
18879;SDS011;9572;52.378;13.404;2023-07-31T08:21:36;3.58;;;2.30;;
18879;SDS011;9572;52.378;13.404;2023-07-31T08:24:03;7.57;;;2.70;;
18879;SDS011;9572;52.378;13.404;2023-07-31T08:26:30;5.32;;;2.70;;
18879;SDS011;9572;52.378;13.404;2023-07-31T08:28:57;9.95;;;2.53;;
18879;SDS011;9572;52.378;13.404;2023-07-31T08:31:24;6.10;;;2.72;;
18879;SDS011;9572;52.378;13.404;2023-07-31T08:33:53;4.55;;;2.90;;
18879;SDS011;9572;52.378;13.404;2023-07-31T08:36:20;5.63;;;2.83;;
18879;SDS011;9572;52.378;13.404;2023-07-31T08:38:47;5.47;;;2.60;;
18879;SDS011;9572;52.378;13.404;2023-07-31T08:41:15;4.57;;;2.35;;
18879;SDS011;9572;52.378;13.404;2023-07-31T08:43:42;5.10;;;2.30;;
18879;SDS011;9572;52.378;13.404;2023-07-31T08:46:11;5.72;;;2.42;;
18879;SDS011;9572;52.378;13.404;2023-07-31T08:48:39;7.75;;;2.58;;
18879;SDS011;9572;52.378;13.404;2023-07-31T08:51:10;4.80;;;2.15;;
18879;SDS011;9572;52.378;13.404;2023-07-31T08:53:37;5.07;;;2.55;;
18879;SDS011;9572;52.378;13.404;2023-07-31T08:56:06;3.78;;;2.20;;
18879;SDS011;9572;52.378;13.404;2023-07-31T08:58:33;3.17;;;2.00;;
18879;SDS011;9572;52.378;13.404;2023-07-31T09:01:04;2.45;;;2.10;;
18879;SDS011;9572;52.378;13.404;2023-07-31T09:03:33;4.22;;;1.80;;
18879;SDS011;9572;52.378;13.404;2023-07-31T09:06:02;4.03;;;1.80;;
18879;SDS011;9572;52.378;13.404;2023-07-31T09:08:32;2.42;;;1.88;;
18879;SDS011;9572;52.378;13.404;2023-07-31T09:11:00;5.38;;;1.38;;
18879;SDS011;9572;52.378;13.404;2023-07-31T09:13:29;3.05;;;1.73;;
18879;SDS011;9572;52.378;13.404;2023-07-31T09:15:56;1.73;;;1.20;;
18879;SDS011;9572;52.378;13.404;2023-07-31T09:18:23;2.38;;;0.93;;
18879;SDS011;9572;52.378;13.404;2023-07-31T09:21:00;1.45;;;0.90;;
18879;SDS011;9572;52.378;13.404;2023-07-31T09:23:40;0.85;;;0.70;;
18879;SDS011;9572;52.378;13.404;2023-07-31T09:26:08;1.30;;;0.70;;
18879;SDS011;9572;52.378;13.404;2023-07-31T09:28:35;0.73;;;0.50;;
18879;SDS011;9572;52.378;13.404;2023-07-31T09:31:02;1.48;;;0.82;;
18879;SDS011;9572;52.378;13.404;2023-07-31T09:33:29;0.85;;;0.68;;
18879;SDS011;9572;52.378;13.404;2023-07-31T09:35:58;2.08;;;0.80;;
18879;SDS011;9572;52.378;13.404;2023-07-31T09:38:26;1.77;;;0.70;;
18879;SDS011;9572;52.378;13.404;2023-07-31T09:40:54;2.10;;;1.10;;
18879;SDS011;9572;52.378;13.404;2023-07-31T09:43:24;2.72;;;1.40;;
18879;SDS011;9572;52.378;13.404;2023-07-31T09:45:54;3.60;;;1.42;;
18879;SDS011;9572;52.378;13.404;2023-07-31T09:48:23;2.42;;;1.40;;
18879;SDS011;9572;52.378;13.404;2023-07-31T09:50:52;1.83;;;1.55;;
18879;SDS011;9572;52.378;13.404;2023-07-31T09:53:19;3.83;;;1.52;;
18879;SDS011;9572;52.378;13.404;2023-07-31T09:55:56;6.03;;;2.20;;
18879;SDS011;9572;52.378;13.404;2023-07-31T09:58:24;3.13;;;1.90;;
18879;SDS011;9572;52.378;13.404;2023-07-31T10:00:54;3.05;;;1.83;;
18879;SDS011;9572;52.378;13.404;2023-07-31T10:03:23;3.22;;;2.20;;
18879;SDS011;9572;52.378;13.404;2023-07-31T10:05:51;6.47;;;2.65;;
18879;SDS011;9572;52.378;13.404;2023-07-31T10:08:21;4.72;;;2.50;;
18879;SDS011;9572;52.378;13.404;2023-07-31T10:10:58;3.38;;;2.25;;
18879;SDS011;9572;52.378;13.404;2023-07-31T10:13:27;5.40;;;2.60;;
18879;SDS011;9572;52.378;13.404;2023-07-31T10:15:56;4.45;;;2.65;;
18879;SDS011;9572;52.378;13.404;2023-07-31T10:18:26;4.68;;;2.72;;
18879;SDS011;9572;52.378;13.404;2023-07-31T10:20:53;7.47;;;2.83;;
18879;SDS011;9572;52.378;13.404;2023-07-31T10:23:22;5.68;;;2.60;;
18879;SDS011;9572;52.378;13.404;2023-07-31T10:25:50;6.72;;;3.00;;
18879;SDS011;9572;52.378;13.404;2023-07-31T10:28:20;6.78;;;3.25;;
18879;SDS011;9572;52.378;13.404;2023-07-31T10:30:50;4.55;;;3.15;;
18879;SDS011;9572;52.378;13.404;2023-07-31T10:33:18;4.50;;;2.60;;
18879;SDS011;9572;52.378;13.404;2023-07-31T10:35:46;4.40;;;3.05;;
18879;SDS011;9572;52.378;13.404;2023-07-31T10:38:14;4.28;;;2.80;;
18879;SDS011;9572;52.378;13.404;2023-07-31T10:40:41;7.68;;;3.58;;
18879;SDS011;9572;52.378;13.404;2023-07-31T10:43:09;6.93;;;2.75;;
18879;SDS011;9572;52.378;13.404;2023-07-31T10:45:52;3.92;;;2.88;;
18879;SDS011;9572;52.378;13.404;2023-07-31T10:48:20;7.57;;;3.45;;
18879;SDS011;9572;52.378;13.404;2023-07-31T10:50:48;4.88;;;2.85;;
18879;SDS011;9572;52.378;13.404;2023-07-31T10:53:22;4.57;;;2.90;;
18879;SDS011;9572;52.378;13.404;2023-07-31T10:55:50;4.45;;;2.72;;
18879;SDS011;9572;52.378;13.404;2023-07-31T10:58:18;6.57;;;2.80;;
18879;SDS011;9572;52.378;13.404;2023-07-31T11:00:48;4.30;;;2.40;;
18879;SDS011;9572;52.378;13.404;2023-07-31T11:03:15;5.15;;;2.42;;
18879;SDS011;9572;52.378;13.404;2023-07-31T11:05:50;5.13;;;2.72;;
18879;SDS011;9572;52.378;13.404;2023-07-31T11:08:20;6.20;;;2.70;;
18879;SDS011;9572;52.378;13.404;2023-07-31T11:10:50;5.43;;;2.83;;
18879;SDS011;9572;52.378;13.404;2023-07-31T11:13:19;4.45;;;2.50;;
18879;SDS011;9572;52.378;13.404;2023-07-31T11:15:46;7.72;;;3.03;;
18879;SDS011;9572;52.378;13.404;2023-07-31T11:18:14;4.47;;;2.20;;
18879;SDS011;9572;52.378;13.404;2023-07-31T11:20:42;5.50;;;2.50;;
18879;SDS011;9572;52.378;13.404;2023-07-31T11:23:09;5.95;;;2.60;;
18879;SDS011;9572;52.378;13.404;2023-07-31T11:25:37;3.97;;;2.50;;
18879;SDS011;9572;52.378;13.404;2023-07-31T11:28:14;5.32;;;2.28;;
18879;SDS011;9572;52.378;13.404;2023-07-31T11:30:42;4.07;;;2.50;;
18879;SDS011;9572;52.378;13.404;2023-07-31T11:33:17;2.97;;;2.50;;
18879;SDS011;9572;52.378;13.404;2023-07-31T11:35:45;4.07;;;2.17;;
18879;SDS011;9572;52.378;13.404;2023-07-31T11:38:20;2.50;;;2.17;;
18879;SDS011;9572;52.378;13.404;2023-07-31T11:40:51;3.35;;;2.35;;
18879;SDS011;9572;52.378;13.404;2023-07-31T11:43:23;4.13;;;2.20;;
18879;SDS011;9572;52.378;13.404;2023-07-31T11:45:52;6.63;;;2.90;;
18879;SDS011;9572;52.378;13.404;2023-07-31T11:51:04;4.80;;;2.40;;
18879;SDS011;9572;52.378;13.404;2023-07-31T11:53:33;4.07;;;2.45;;
18879;SDS011;9572;52.378;13.404;2023-07-31T11:56:04;7.55;;;2.38;;
18879;SDS011;9572;52.378;13.404;2023-07-31T11:58:34;5.90;;;2.38;;
18879;SDS011;9572;52.378;13.404;2023-07-31T12:01:02;4.05;;;2.35;;
18879;SDS011;9572;52.378;13.404;2023-07-31T12:03:31;4.82;;;2.70;;
18879;SDS011;9572;52.378;13.404;2023-07-31T12:06:06;4.40;;;2.60;;
18879;SDS011;9572;52.378;13.404;2023-07-31T12:08:34;4.97;;;2.50;;
18879;SDS011;9572;52.378;13.404;2023-07-31T12:11:02;7.53;;;2.40;;
18879;SDS011;9572;52.378;13.404;2023-07-31T12:13:32;6.30;;;2.50;;
18879;SDS011;9572;52.378;13.404;2023-07-31T12:16:01;5.85;;;2.47;;
18879;SDS011;9572;52.378;13.404;2023-07-31T12:18:33;6.63;;;2.70;;
18879;SDS011;9572;52.378;13.404;2023-07-31T12:21:02;7.20;;;2.60;;
18879;SDS011;9572;52.378;13.404;2023-07-31T12:23:35;5.05;;;2.92;;
18879;SDS011;9572;52.378;13.404;2023-07-31T12:26:04;7.18;;;2.80;;
18879;SDS011;9572;52.378;13.404;2023-07-31T12:28:34;4.78;;;2.15;;
18879;SDS011;9572;52.378;13.404;2023-07-31T12:31:03;3.83;;;2.30;;
18879;SDS011;9572;52.378;13.404;2023-07-31T12:33:31;4.15;;;2.10;;
18879;SDS011;9572;52.378;13.404;2023-07-31T12:36:00;4.40;;;1.95;;
18879;SDS011;9572;52.378;13.404;2023-07-31T12:38:30;4.72;;;2.25;;
18879;SDS011;9572;52.378;13.404;2023-07-31T12:40:57;4.50;;;2.00;;
18879;SDS011;9572;52.378;13.404;2023-07-31T12:43:24;3.40;;;1.67;;
18879;SDS011;9572;52.378;13.404;2023-07-31T12:45:51;3.30;;;1.70;;
18879;SDS011;9572;52.378;13.404;2023-07-31T12:48:20;2.22;;;1.77;;
18879;SDS011;9572;52.378;13.404;2023-07-31T12:50:47;1.58;;;1.42;;
18879;SDS011;9572;52.378;13.404;2023-07-31T12:53:14;5.30;;;2.00;;
18879;SDS011;9572;52.378;13.404;2023-07-31T12:55:43;7.38;;;1.90;;
18879;SDS011;9572;52.378;13.404;2023-07-31T12:58:10;4.53;;;2.10;;
18879;SDS011;9572;52.378;13.404;2023-07-31T13:00:37;2.53;;;1.73;;
18879;SDS011;9572;52.378;13.404;2023-07-31T13:03:04;3.85;;;1.75;;
18879;SDS011;9572;52.378;13.404;2023-07-31T13:05:31;6.55;;;2.33;;
18879;SDS011;9572;52.378;13.404;2023-07-31T13:07:58;6.45;;;2.03;;
18879;SDS011;9572;52.378;13.404;2023-07-31T13:10:25;4.88;;;2.40;;
18879;SDS011;9572;52.378;13.404;2023-07-31T13:12:55;5.03;;;2.20;;
18879;SDS011;9572;52.378;13.404;2023-07-31T13:15:22;3.15;;;1.85;;
18879;SDS011;9572;52.378;13.404;2023-07-31T13:17:49;3.83;;;2.10;;
18879;SDS011;9572;52.378;13.404;2023-07-31T13:20:16;4.63;;;2.25;;
18879;SDS011;9572;52.378;13.404;2023-07-31T13:22:43;3.45;;;2.33;;
18879;SDS011;9572;52.378;13.404;2023-07-31T13:25:10;5.18;;;2.20;;
18879;SDS011;9572;52.378;13.404;2023-07-31T13:27:37;7.32;;;2.58;;
18879;SDS011;9572;52.378;13.404;2023-07-31T13:30:07;4.00;;;2.15;;
18879;SDS011;9572;52.378;13.404;2023-07-31T13:32:34;4.00;;;2.47;;
18879;SDS011;9572;52.378;13.404;2023-07-31T13:35:03;8.27;;;2.55;;
18879;SDS011;9572;52.378;13.404;2023-07-31T13:37:31;5.90;;;2.60;;
18879;SDS011;9572;52.378;13.404;2023-07-31T13:39:58;6.70;;;3.00;;
18879;SDS011;9572;52.378;13.404;2023-07-31T13:42:25;5.45;;;2.75;;
18879;SDS011;9572;52.378;13.404;2023-07-31T13:44:53;5.35;;;2.45;;
18879;SDS011;9572;52.378;13.404;2023-07-31T13:47:22;5.15;;;2.53;;
18879;SDS011;9572;52.378;13.404;2023-07-31T13:49:49;5.30;;;2.45;;
18879;SDS011;9572;52.378;13.404;2023-07-31T13:52:16;4.40;;;2.80;;
18879;SDS011;9572;52.378;13.404;2023-07-31T13:54:43;4.47;;;2.63;;
18879;SDS011;9572;52.378;13.404;2023-07-31T13:57:10;4.45;;;2.60;;
18879;SDS011;9572;52.378;13.404;2023-07-31T13:59:37;6.18;;;2.40;;
18879;SDS011;9572;52.378;13.404;2023-07-31T14:02:04;5.10;;;2.65;;
18879;SDS011;9572;52.378;13.404;2023-07-31T14:04:33;5.47;;;2.30;;
18879;SDS011;9572;52.378;13.404;2023-07-31T14:07:00;2.60;;;2.20;;
18879;SDS011;9572;52.378;13.404;2023-07-31T14:09:26;3.65;;;2.58;;
18879;SDS011;9572;52.378;13.404;2023-07-31T14:11:53;4.50;;;2.90;;
18879;SDS011;9572;52.378;13.404;2023-07-31T14:14:21;6.10;;;2.22;;
18879;SDS011;9572;52.378;13.404;2023-07-31T14:16:48;7.93;;;2.50;;
18879;SDS011;9572;52.378;13.404;2023-07-31T14:19:14;5.85;;;2.47;;
18879;SDS011;9572;52.378;13.404;2023-07-31T14:21:43;3.35;;;2.53;;
18879;SDS011;9572;52.378;13.404;2023-07-31T14:24:10;3.05;;;2.40;;
18879;SDS011;9572;52.378;13.404;2023-07-31T14:26:37;4.00;;;2.28;;
18879;SDS011;9572;52.378;13.404;2023-07-31T14:29:03;5.95;;;2.53;;
18879;SDS011;9572;52.378;13.404;2023-07-31T14:31:30;6.05;;;2.55;;
18879;SDS011;9572;52.378;13.404;2023-07-31T14:33:57;3.58;;;2.42;;
18879;SDS011;9572;52.378;13.404;2023-07-31T14:36:24;3.53;;;2.95;;
18879;SDS011;9572;52.378;13.404;2023-07-31T14:38:53;6.05;;;3.00;;
18879;SDS011;9572;52.378;13.404;2023-07-31T14:41:19;6.30;;;2.75;;
18879;SDS011;9572;52.378;13.404;2023-07-31T14:43:47;3.30;;;2.40;;
18879;SDS011;9572;52.378;13.404;2023-07-31T14:46:14;8.38;;;2.65;;
18879;SDS011;9572;52.378;13.404;2023-07-31T14:48:41;3.65;;;2.42;;
18879;SDS011;9572;52.378;13.404;2023-07-31T14:51:08;7.05;;;2.85;;
18879;SDS011;9572;52.378;13.404;2023-07-31T14:53:35;5.15;;;2.92;;
18879;SDS011;9572;52.378;13.404;2023-07-31T14:56:03;4.85;;;2.38;;